Time;durP1;ratioP1;P1;durP2;ratioP2;P2;SDS_P1;SDS_P2;PMS_P1;PMS_P2;Temp;Humidity;BMP_temperature;BMP_pressure;BME280_temperature;BME280_humidity;BME280_pressure;Samples;Min_cycle;Max_cycle;Signal;HPM_P1;HPM_P2
2023/01/14 05:08:21;;;;;;;3.35;0.93;;;6.80;99.90;;;;;;4956535;28;20625;-70
2023/01/14 05:10:49;;;;;;;2.97;0.90;;;6.80;99.90;;;;;;4956324;29;20172;-70
2023/01/14 05:13:15;;;;;;;1.05;0.60;;;6.80;99.90;;;;;;4955915;29;20176;-71
2023/01/14 05:15:43;;;;;;;0.47;0.45;;;6.80;99.90;;;;;;4956218;29;20218;-70
2023/01/14 05:18:11;;;;;;;2.70;0.95;;;6.80;99.90;;;;;;4956311;29;20263;-71
2023/01/14 05:20:39;;;;;;;0.40;0.40;;;6.80;99.90;;;;;;4956265;29;20175;-70
2023/01/14 05:23:06;;;;;;;0.90;0.90;;;6.80;99.90;;;;;;4955304;29;20184;-71
2023/01/14 05:25:36;;;;;;;1.70;0.82;;;6.80;99.90;;;;;;4936881;29;20531;-69
2023/01/14 05:28:04;;;;;;;0.88;0.88;;;6.80;99.90;;;;;;4945168;29;20181;-70
2023/01/14 05:30:30;;;;;;;1.40;0.95;;;6.80;99.90;;;;;;4956044;29;20541;-69
2023/01/14 05:32:56;;;;;;;0.40;0.40;;;6.80;99.90;;;;;;4955276;29;20172;-69
2023/01/14 05:35:22;;;;;;;1.57;1.10;;;6.80;99.90;;;;;;4954077;28;20673;-69
2023/01/14 05:37:48;;;;;;;2.25;0.70;;;6.80;99.90;;;;;;4938154;29;20186;-69
2023/01/14 05:40:14;;;;;;;1.07;0.60;;;6.80;99.90;;;;;;4955736;29;20179;-69
2023/01/14 05:46:09;;;;;;;0.60;0.40;;;6.90;99.90;;;;;;4955478;29;20198;-70
2023/01/14 05:48:11;;;;;;;1.88;0.63;;;6.90;99.90;;;;;;4945352;29;20281;-70
2023/01/14 05:50:37;;;;;;;0.60;0.60;;;6.80;99.90;;;;;;4955551;29;20571;-69
2023/01/14 05:53:04;;;;;;;0.63;0.63;;;6.90;99.90;;;;;;4955023;29;20196;-69
2023/01/14 05:55:30;;;;;;;0.60;0.60;;;6.90;99.90;;;;;;4955458;29;20244;-70
2023/01/14 05:58:00;;;;;;;1.70;0.80;;;6.80;99.90;;;;;;4955280;29;20214;-69
2023/01/14 06:08:38;;;;;;;0.60;0.40;;;6.40;99.90;;;;;;4955441;29;20218;-69
2023/01/14 06:11:03;;;;;;;0.63;0.57;;;6.40;99.90;;;;;;4955354;29;20214;-68
2023/01/14 06:13:29;;;;;;;4.33;1.43;;;6.30;99.90;;;;;;4954909;29;20184;-69
2023/01/14 06:15:57;;;;;;;0.93;0.57;;;6.30;99.90;;;;;;4937924;29;20180;-68
2023/01/14 06:18:23;;;;;;;5.07;1.45;;;6.30;99.90;;;;;;4937622;29;20208;-68
2023/01/14 06:20:53;;;;;;;3.33;1.00;;;6.20;99.90;;;;;;4955390;29;20176;-68
2023/01/14 06:23:20;;;;;;;0.43;0.43;;;6.20;99.90;;;;;;4954413;29;20183;-69
2023/01/14 06:25:48;;;;;;;0.50;0.50;;;6.20;99.90;;;;;;4955333;29;20208;-69
2023/01/14 06:28:15;;;;;;;0.77;0.77;;;6.10;99.90;;;;;;4955146;29;20183;-69
2023/01/14 06:30:42;;;;;;;0.60;0.60;;;6.10;99.90;;;;;;4955224;29;20175;-70
2023/01/14 06:33:08;;;;;;;0.50;0.50;;;6.00;99.90;;;;;;4955001;29;20563;-71
2023/01/14 06:35:39;;;;;;;0.88;0.70;;;6.00;99.90;;;;;;4955022;29;20207;-70
2023/01/14 06:38:05;;;;;;;1.38;0.90;;;5.90;99.90;;;;;;4954612;29;20210;-70
2023/01/14 06:40:30;;;;;;;1.80;0.80;;;5.90;99.90;;;;;;4955159;29;20175;-69
2023/01/14 06:42:56;;;;;;;1.30;0.80;;;5.80;99.90;;;;;;4954805;29;20631;-69
2023/01/14 06:45:23;;;;;;;0.50;0.50;;;5.70;99.90;;;;;;4955137;28;20284;-69
2023/01/14 06:47:49;;;;;;;0.80;0.75;;;5.70;99.90;;;;;;4958220;29;20629;-70
2023/01/14 06:50:17;;;;;;;0.80;0.40;;;5.70;99.90;;;;;;4953491;29;20183;-69
2023/01/14 06:52:43;;;;;;;1.02;0.70;;;5.70;99.90;;;;;;4957505;29;20487;-69
2023/01/14 06:55:08;;;;;;;0.90;0.90;;;5.60;99.90;;;;;;4958767;29;20185;-69
2023/01/14 06:57:34;;;;;;;0.30;0.30;;;5.60;99.90;;;;;;4958935;29;20248;-70
2023/01/14 07:00:00;;;;;;;1.50;0.40;;;5.70;99.90;;;;;;4958820;29;20262;-69
2023/01/14 07:02:25;;;;;;;2.20;0.70;;;5.70;99.90;;;;;;4958495;29;20170;-69
2023/01/14 07:04:51;;;;;;;2.73;1.30;;;5.90;99.90;;;;;;4958181;29;20304;-69
2023/01/14 07:07:17;;;;;;;5.03;0.90;;;5.90;99.90;;;;;;4940629;29;20194;-69
2023/01/14 07:09:43;;;;;;;0.80;0.80;;;5.90;99.90;;;;;;4941160;29;20707;-70
2023/01/14 07:12:08;;;;;;;0.60;0.60;;;6.00;99.90;;;;;;4957208;29;20174;-68
2023/01/14 07:14:34;;;;;;;3.03;1.23;;;6.10;99.90;;;;;;4957682;29;20196;-69
2023/01/14 07:17:01;;;;;;;2.50;0.93;;;6.10;99.90;;;;;;4958454;29;20177;-68
2023/01/14 07:19:27;;;;;;;0.73;0.73;;;6.20;99.90;;;;;;4957758;29;20565;-68
2023/01/14 07:21:52;;;;;;;1.97;0.60;;;6.30;99.90;;;;;;4958162;29;20182;-68
2023/01/14 07:24:18;;;;;;;0.53;0.53;;;6.30;99.90;;;;;;4957954;29;20201;-68
2023/01/14 07:26:44;;;;;;;3.00;1.10;;;6.40;99.90;;;;;;4958284;29;20177;-67
2023/01/14 07:29:11;;;;;;;1.43;0.80;;;6.50;99.90;;;;;;4958114;29;20176;-68
2023/01/14 07:31:36;;;;;;;1.60;0.60;;;6.60;99.90;;;;;;4957836;29;20167;-67
2023/01/14 07:34:02;;;;;;;1.13;1.03;;;6.70;99.90;;;;;;4957306;29;20204;-67
2023/01/14 07:36:28;;;;;;;2.00;0.67;;;6.80;99.90;;;;;;4958099;29;20639;-68
2023/01/14 07:38:53;;;;;;;5.60;1.80;;;6.80;99.90;;;;;;4940579;29;20550;-66
2023/01/14 07:41:20;;;;;;;1.47;0.80;;;6.90;99.90;;;;;;4958070;29;20171;-67
2023/01/14 07:43:45;;;;;;;5.78;1.40;;;7.00;99.90;;;;;;4956995;29;20689;-68
2023/01/14 07:46:11;;;;;;;1.80;0.90;;;7.10;99.90;;;;;;4957872;29;20171;-69
2023/01/14 07:48:37;;;;;;;3.17;1.30;;;7.10;99.90;;;;;;4957800;29;21009;-68
2023/01/14 07:51:05;;;;;;;1.30;0.90;;;7.20;99.90;;;;;;4940177;29;20222;-73
2023/01/14 07:53:31;;;;;;;1.10;0.73;;;7.20;99.90;;;;;;4957174;29;20222;-69
2023/01/14 07:56:00;;;;;;;3.42;1.10;;;7.30;99.90;;;;;;4940236;29;20190;-69
2023/01/14 07:58:25;;;;;;;1.90;0.75;;;7.40;99.90;;;;;;4957198;28;20291;-71
2023/01/14 08:00:51;;;;;;;1.37;0.80;;;7.40;99.90;;;;;;4957620;29;20192;-68
2023/01/14 08:03:17;;;;;;;5.13;1.53;;;7.40;99.90;;;;;;4956953;29;20707;-67
2023/01/14 08:05:42;;;;;;;6.20;1.70;;;7.50;99.90;;;;;;4957291;29;20439;-65
2023/01/14 08:08:08;;;;;;;2.23;1.13;;;7.50;99.90;;;;;;4957445;29;20654;-67
2023/01/14 08:10:33;;;;;;;2.70;1.40;;;7.50;99.90;;;;;;4957355;29;20191;-66
2023/01/14 08:12:59;;;;;;;4.20;1.07;;;7.50;99.90;;;;;;4956981;29;20183;-68
2023/01/14 08:15:25;;;;;;;4.23;1.00;;;7.50;99.90;;;;;;4939931;29;20279;-68
2023/01/14 08:17:50;;;;;;;1.43;0.67;;;7.60;99.90;;;;;;4956787;29;21850;-69
2023/01/14 08:20:22;;;;;;;1.23;1.10;;;7.60;99.90;;;;;;4957267;29;20589;-68
2023/01/14 08:22:47;;;;;;;1.30;0.90;;;7.60;99.90;;;;;;4957101;29;20172;-68
2023/01/14 08:25:13;;;;;;;1.60;1.30;;;7.60;99.90;;;;;;4957022;29;20203;-67
2023/01/14 08:27:38;;;;;;;2.10;1.10;;;7.60;99.90;;;;;;4957362;29;20715;-68
2023/01/14 08:30:05;;;;;;;4.23;1.10;;;7.70;99.90;;;;;;4957231;29;20215;-68
2023/01/14 08:32:30;;;;;;;1.27;1.05;;;7.70;99.90;;;;;;4956593;29;20173;-67
2023/01/14 08:34:56;;;;;;;8.73;2.67;;;7.80;99.90;;;;;;4956579;29;20199;-69
2023/01/14 08:37:22;;;;;;;5.27;1.87;;;7.80;99.90;;;;;;4955455;29;20226;-70
2023/01/14 08:39:47;;;;;;;0.93;0.93;;;7.80;99.90;;;;;;4954555;29;20587;-67
2023/01/14 08:42:13;;;;;;;0.90;0.70;;;7.80;99.90;;;;;;4937570;29;20495;-69
2023/01/14 08:44:38;;;;;;;2.23;1.20;;;7.90;99.90;;;;;;4954169;29;20197;-68
2023/01/14 08:47:04;;;;;;;3.10;1.13;;;7.90;99.90;;;;;;4954706;29;20169;-69
2023/01/14 08:49:31;;;;;;;6.33;0.93;;;8.00;99.90;;;;;;4954752;29;20177;-67
2023/01/14 08:51:58;;;;;;;2.05;1.20;;;8.20;99.90;;;;;;4951348;29;20176;-68
2023/01/14 08:54:23;;;;;;;2.05;1.95;;;8.20;99.90;;;;;;4934789;29;20694;-69
2023/01/14 08:56:49;;;;;;;1.50;0.87;;;8.30;99.90;;;;;;4939469;29;20187;-69
2023/01/14 08:59:15;;;;;;;3.90;1.30;;;8.30;99.90;;;;;;4956468;29;20200;-68
2023/01/14 09:01:40;;;;;;;2.20;1.17;;;8.40;99.90;;;;;;4939142;29;20596;-70
2023/01/14 09:04:06;;;;;;;2.43;0.93;;;8.50;99.90;;;;;;4955683;29;20204;-68
2023/01/14 09:17:04;;;;;;;0.80;0.70;;;8.50;99.90;;;;;;4956107;29;20180;-69
2023/01/14 09:17:16;;;;;;;1.38;0.90;;;8.80;99.90;;;;;;4956229;29;20187;-69
2023/01/14 09:19:54;;;;;;;1.80;0.80;;;8.90;99.90;;;;;;4956059;29;20740;-69
2023/01/14 09:22:23;;;;;;;1.10;1.10;;;8.90;99.90;;;;;;4955750;29;20177;-68
2023/01/14 09:24:49;;;;;;;3.90;1.02;;;8.90;99.90;;;;;;4955351;29;20296;-70
2023/01/14 09:27:15;;;;;;;0.63;0.63;;;9.00;99.90;;;;;;4955638;29;20177;-68
2023/01/14 09:29:41;;;;;;;2.20;0.90;;;9.00;99.90;;;;;;4955993;29;20527;-68
2023/01/14 09:32:10;;;;;;;2.00;1.10;;;9.00;99.90;;;;;;4955940;29;20169;-68
2023/01/14 09:34:49;;;;;;;1.90;0.77;;;9.00;99.90;;;;;;4955231;29;20702;-68
2023/01/14 09:37:16;;;;;;;1.35;0.95;;;9.00;99.90;;;;;;4938490;29;20642;-68
2023/01/14 09:39:41;;;;;;;1.77;0.90;;;8.90;99.90;;;;;;4955624;29;20748;-67
2023/01/14 09:42:15;;;;;;;1.30;1.20;;;8.90;99.90;;;;;;4955697;29;20204;-69
2023/01/14 09:44:43;;;;;;;2.13;1.70;;;8.90;99.90;;;;;;4938140;29;20481;-69
2023/01/14 09:47:17;;;;;;;4.30;1.33;;;8.90;99.90;;;;;;4938437;29;20184;-69
2023/01/14 09:49:44;;;;;;;2.92;1.30;;;8.90;99.90;;;;;;4954823;29;20188;-67
2023/01/14 09:52:09;;;;;;;1.88;1.45;;;8.90;99.90;;;;;;4955378;29;20244;-68
2023/01/14 09:55:01;;;;;;;2.27;0.93;;;9.00;99.90;;;;;;4954936;29;20192;-69
2023/01/14 09:57:50;;;;;;;3.00;1.20;;;9.00;99.90;;;;;;4955191;29;20186;-68
2023/01/14 10:00:21;;;;;;;2.05;0.98;;;9.10;99.90;;;;;;4955338;29;20173;-68
2023/01/14 10:03:15;;;;;;;1.05;0.95;;;9.10;99.90;;;;;;4955121;29;20173;-69
2023/01/14 10:05:45;;;;;;;0.93;0.93;;;9.20;99.90;;;;;;4937730;29;20181;-70
2023/01/14 10:08:14;;;;;;;2.13;0.85;;;9.20;99.90;;;;;;4956278;29;20188;-68
2023/01/14 10:10:43;;;;;;;1.88;0.80;;;9.40;99.90;;;;;;4937684;29;20181;-68
2023/01/14 10:13:41;;;;;;;1.23;1.17;;;9.50;99.90;;;;;;4953949;29;20251;-69
2023/01/14 10:16:19;;;;;;;4.00;1.73;;;9.60;99.90;;;;;;4936110;29;20210;-69
2023/01/14 10:19:16;;;;;;;1.15;1.05;;;9.80;99.90;;;;;;4936320;29;20243;-68
2023/01/14 10:22:11;;;;;;;2.60;0.80;;;9.90;99.90;;;;;;4955079;29;20673;-68
2023/01/14 10:24:38;;;;;;;1.00;1.00;;;10.00;99.90;;;;;;4950689;29;20278;-68
2023/01/14 10:27:14;;;;;;;0.70;0.65;;;10.10;99.90;;;;;;4955582;29;20259;-68
2023/01/14 10:29:40;;;;;;;0.70;0.65;;;10.10;99.90;;;;;;4955046;29;20176;-68
2023/01/14 10:32:12;;;;;;;1.30;0.75;;;10.20;99.90;;;;;;4954555;29;20183;-67
2023/01/14 10:34:43;;;;;;;1.40;0.70;;;10.20;99.90;;;;;;4954445;29;20192;-69
2023/01/14 10:37:10;;;;;;;1.17;0.65;;;10.20;99.90;;;;;;4955178;29;20263;-67
2023/01/14 10:39:38;;;;;;;1.23;0.90;;;10.30;99.90;;;;;;4954742;29;20244;-68
2023/01/14 10:42:05;;;;;;;1.30;0.77;;;10.30;99.90;;;;;;4954793;29;20172;-68
2023/01/14 10:44:33;;;;;;;4.30;1.60;;;10.20;99.90;;;;;;4954570;29;20244;-69
2023/01/14 10:47:13;;;;;;;0.85;0.85;;;10.20;99.90;;;;;;4954500;29;20215;-67
2023/01/14 10:49:57;;;;;;;0.93;0.93;;;10.20;99.90;;;;;;4954732;29;20251;-69
2023/01/14 10:52:31;;;;;;;1.42;1.30;;;10.20;99.90;;;;;;4955081;29;20178;-68
2023/01/14 10:54:59;;;;;;;0.80;0.80;;;10.20;99.90;;;;;;4954574;29;20199;-67
2023/01/14 10:57:28;;;;;;;0.80;0.80;;;10.20;99.90;;;;;;4954660;29;20197;-66
2023/01/14 10:59:56;;;;;;;0.70;0.70;;;10.20;99.90;;;;;;4954436;29;20215;-67
2023/01/14 11:02:32;;;;;;;1.90;0.90;;;10.20;99.90;;;;;;4954553;29;20592;-66
2023/01/14 11:04:59;;;;;;;0.70;0.70;;;10.20;99.90;;;;;;4954264;29;20272;-67
2023/01/14 11:07:39;;;;;;;0.88;0.65;;;10.30;99.90;;;;;;4954549;29;20699;-70
2023/01/14 11:10:28;;;;;;;1.42;0.55;;;10.20;99.90;;;;;;4954204;29;20193;-71
2023/01/14 11:13:33;;;;;;;0.60;0.60;;;10.20;99.90;;;;;;4954515;29;20177;-70
2023/01/14 11:16:00;;;;;;;2.20;1.20;;;10.30;99.90;;;;;;4954050;29;20224;-69
2023/01/14 11:18:32;;;;;;;1.10;1.00;;;10.30;99.90;;;;;;4953578;29;20211;-68
2023/01/14 11:21:08;;;;;;;2.78;0.88;;;10.30;99.90;;;;;;4954436;29;20244;-71
2023/01/14 11:23:36;;;;;;;0.70;0.70;;;10.30;99.90;;;;;;4936996;29;20535;-71
2023/01/14 11:26:12;;;;;;;0.68;0.68;;;10.30;99.90;;;;;;4937275;29;20276;-69
2023/01/14 11:28:44;;;;;;;1.13;0.88;;;10.30;99.90;;;;;;4936170;29;20599;-69
2023/01/14 11:31:10;;;;;;;2.60;1.25;;;10.40;99.90;;;;;;4936768;29;20192;-67
2023/01/14 11:33:49;;;;;;;2.15;0.90;;;10.40;99.90;;;;;;4932424;29;20180;-71
2023/01/14 11:36:23;;;;;;;2.28;0.70;;;10.40;99.90;;;;;;4957928;29;20164;-69
2023/01/14 11:38:50;;;;;;;0.80;0.75;;;10.30;99.90;;;;;;4957689;29;20204;-69
2023/01/14 11:41:34;;;;;;;1.08;0.90;;;10.30;99.90;;;;;;4957822;29;20173;-70
2023/01/14 11:44:03;;;;;;;1.20;1.10;;;10.30;99.90;;;;;;4940212;29;20689;-69
2023/01/14 11:46:29;;;;;;;2.17;1.08;;;10.30;99.90;;;;;;4957999;29;20631;-71
2023/01/14 11:49:01;;;;;;;2.28;1.02;;;10.30;99.90;;;;;;4957619;29;20203;-71
2023/01/14 11:51:27;;;;;;;1.02;0.70;;;10.40;99.90;;;;;;4957807;29;20251;-70
2023/01/14 11:53:54;;;;;;;1.27;0.80;;;10.50;99.90;;;;;;4957108;29;20350;-70
2023/01/14 11:56:28;;;;;;;0.80;0.80;;;10.50;99.90;;;;;;4940506;29;20408;-71
2023/01/14 11:58:54;;;;;;;1.15;0.80;;;10.60;99.90;;;;;;4957239;29;20210;-71
2023/01/14 12:01:28;;;;;;;0.70;0.70;;;10.70;99.90;;;;;;4957383;29;20652;-71
2023/01/14 12:04:03;;;;;;;1.45;0.95;;;10.70;99.90;;;;;;4937850;29;20197;-71
2023/01/14 12:06:41;;;;;;;1.05;0.77;;;10.70;99.90;;;;;;4938380;29;20279;-69
2023/01/14 12:09:14;;;;;;;1.02;0.95;;;10.80;99.90;;;;;;4941387;29;20533;-70
2023/01/14 12:12:01;;;;;;;4.10;1.40;;;10.80;99.90;;;;;;4952617;29;20185;-73
2023/01/14 12:17:41;;;;;;;1.13;0.90;;;10.80;99.90;;;;;;4956970;29;20191;-72
2023/01/14 12:20:13;;;;;;;3.33;0.82;;;10.80;99.90;;;;;;4957210;29;20208;-71
2023/01/14 12:22:51;;;;;;;3.53;1.20;;;10.80;99.90;;;;;;4957035;29;20532;-68
2023/01/14 12:25:28;;;;;;;0.85;0.85;;;10.90;99.90;;;;;;4956707;29;20204;-73
2023/01/14 12:28:23;;;;;;;0.63;0.63;;;10.90;99.90;;;;;;4956553;29;20208;-70
2023/01/14 12:30:51;;;;;;;0.50;0.50;;;10.90;99.90;;;;;;4956739;29;20220;-70
2023/01/14 12:33:40;;;;;;;0.60;0.60;;;10.90;99.90;;;;;;4956531;29;20505;-71
2023/01/14 12:36:21;;;;;;;0.60;0.60;;;10.80;99.90;;;;;;4956498;29;20175;-68
2023/01/14 12:47:46;;;;;;;0.57;0.57;;;10.70;99.90;;;;;;4957109;29;20176;-69
2023/01/14 12:50:13;;;;;;;0.63;0.50;;;10.70;99.90;;;;;;4956506;29;20641;-67
2023/01/14 12:52:48;;;;;;;1.02;0.88;;;10.80;99.90;;;;;;4956218;29;20410;-66
2023/01/14 12:55:32;;;;;;;1.58;1.15;;;10.80;99.90;;;;;;4938936;29;20694;-67
2023/01/14 12:57:59;;;;;;;1.13;0.70;;;10.80;99.90;;;;;;4956547;29;20324;-66
2023/01/14 13:00:32;;;;;;;0.73;0.63;;;10.90;99.90;;;;;;4956564;29;20178;-66
2023/01/14 13:03:02;;;;;;;0.80;0.70;;;10.80;99.90;;;;;;4956020;29;20173;-68
2023/01/14 13:05:34;;;;;;;0.70;0.70;;;10.80;99.90;;;;;;4956326;29;20185;-67
2023/01/14 13:08:03;;;;;;;1.05;0.95;;;10.80;99.90;;;;;;4956154;29;20213;-67
2023/01/14 13:10:35;;;;;;;1.02;1.00;;;10.70;99.90;;;;;;4956584;29;20261;-65
2023/01/14 13:13:19;;;;;;;1.00;1.00;;;10.70;99.90;;;;;;4955579;29;20180;-66
2023/01/14 13:15:45;;;;;;;0.82;0.80;;;10.70;99.90;;;;;;4939388;29;20280;-67
2023/01/14 13:18:35;;;;;;;0.73;0.57;;;10.70;99.90;;;;;;4956042;29;20205;-67
2023/01/14 13:21:02;;;;;;;4.60;1.27;;;10.70;99.90;;;;;;4956529;29;20446;-67
2023/01/14 13:23:51;;;;;;;0.98;0.80;;;10.60;99.90;;;;;;4955277;29;20169;-66
2023/01/14 13:26:41;;;;;;;0.80;0.80;;;10.70;99.90;;;;;;4945594;29;20224;-67
2023/01/14 13:29:15;;;;;;;1.70;1.00;;;10.70;99.90;;;;;;4956120;29;20223;-66
2023/01/14 13:31:42;;;;;;;5.93;1.05;;;10.70;99.90;;;;;;4955854;29;20172;-67
2023/01/14 13:34:23;;;;;;;1.45;1.17;;;10.70;99.90;;;;;;4955378;29;20209;-67
2023/01/14 13:37:02;;;;;;;0.93;0.90;;;10.60;99.90;;;;;;4956787;29;20181;-67
2023/01/14 13:39:30;;;;;;;1.02;0.80;;;10.60;99.90;;;;;;4955414;29;20662;-66
2023/01/14 13:41:58;;;;;;;1.40;1.30;;;10.50;99.90;;;;;;4955604;29;20195;-67
2023/01/14 13:44:28;;;;;;;1.13;1.02;;;10.50;99.90;;;;;;4955326;29;20197;-66
2023/01/14 13:46:58;;;;;;;1.90;1.00;;;10.60;99.90;;;;;;4955679;29;20225;-67
2023/01/14 13:49:42;;;;;;;1.90;1.13;;;10.60;99.90;;;;;;4955451;29;20181;-66
2023/01/14 13:52:18;;;;;;;2.58;1.00;;;10.60;99.90;;;;;;4955566;29;20191;-67
2023/01/14 13:54:45;;;;;;;1.02;0.93;;;10.50;99.90;;;;;;4954536;28;20224;-67
2023/01/14 13:57:25;;;;;;;1.48;1.00;;;10.50;99.90;;;;;;4955534;29;20662;-68
2023/01/14 13:59:58;;;;;;;1.92;1.15;;;10.50;99.90;;;;;;4955527;29;20204;-67
2023/01/14 14:02:56;;;;;;;0.80;0.80;;;10.50;99.90;;;;;;4955457;29;20177;-67
2023/01/14 14:05:30;;;;;;;1.33;0.75;;;10.60;99.90;;;;;;4955373;29;20192;-68
2023/01/14 14:07:59;;;;;;;0.93;0.93;;;10.60;99.90;;;;;;4954976;29;20203;-67
2023/01/14 14:10:28;;;;;;;1.30;1.20;;;10.60;99.90;;;;;;4955495;29;20639;-67
2023/01/14 14:15:58;;;;;;;0.82;0.82;;;10.60;99.90;;;;;;4955454;29;20243;-67
2023/01/14 14:18:36;;;;;;;0.77;0.77;;;10.60;99.90;;;;;;4955193;29;20576;-66
2023/01/14 14:21:06;;;;;;;1.13;0.90;;;10.60;99.90;;;;;;4955335;29;20183;-67
2023/01/14 14:23:39;;;;;;;1.25;0.95;;;10.60;99.90;;;;;;4954498;29;20260;-67
2023/01/14 14:26:17;;;;;;;1.30;1.30;;;10.60;99.90;;;;;;4955330;29;20176;-67
2023/01/14 14:28:46;;;;;;;0.90;0.80;;;10.60;99.90;;;;;;4938219;29;20181;-67
2023/01/14 14:31:17;;;;;;;0.68;0.68;;;10.60;99.90;;;;;;4938297;29;20185;-67
2023/01/14 14:33:44;;;;;;;2.33;0.68;;;10.60;99.90;;;;;;4955179;29;20540;-66
2023/01/14 14:36:19;;;;;;;1.20;1.10;;;10.60;99.90;;;;;;4955603;29;20225;-68
2023/01/14 14:38:51;;;;;;;0.73;0.73;;;10.60;99.90;;;;;;4954678;29;20200;-67
2023/01/14 14:41:22;;;;;;;1.95;1.00;;;10.70;99.90;;;;;;4955073;29;20177;-66
2023/01/14 14:43:59;;;;;;;0.60;0.60;;;10.70;99.90;;;;;;4950822;29;20198;-67
2023/01/14 14:46:26;;;;;;;0.95;0.93;;;10.80;99.90;;;;;;4954595;29;20164;-66
2023/01/14 14:48:52;;;;;;;0.63;0.60;;;10.70;99.90;;;;;;4955161;29;20289;-67
2023/01/14 14:51:23;;;;;;;0.50;0.50;;;10.80;99.90;;;;;;4954691;29;20578;-68
2023/01/14 14:53:49;;;;;;;0.50;0.50;;;10.80;99.90;;;;;;4954124;29;20211;-66
2023/01/14 14:56:18;;;;;;;0.80;0.50;;;10.90;99.90;;;;;;4954774;29;20635;-66
2023/01/14 14:58:51;;;;;;;0.60;0.60;;;11.00;99.90;;;;;;4954846;29;20550;-66
2023/01/14 15:01:22;;;;;;;1.80;1.20;;;11.00;99.90;;;;;;4954802;29;20262;-67
2023/01/14 15:03:51;;;;;;;1.20;0.90;;;11.00;99.90;;;;;;4937219;29;20225;-67
2023/01/14 15:06:18;;;;;;;0.68;0.68;;;11.00;99.90;;;;;;4954563;28;20197;-69
2023/01/14 15:08:55;;;;;;;1.40;1.05;;;11.00;99.90;;;;;;4957961;29;20540;-70
2023/01/14 15:11:26;;;;;;;0.88;0.88;;;11.00;99.90;;;;;;4958627;29;20172;-67
2023/01/14 15:13:53;;;;;;;2.20;0.90;;;10.90;99.90;;;;;;4938841;29;20198;-70
2023/01/14 15:16:24;;;;;;;1.08;1.00;;;11.00;99.90;;;;;;4939273;29;20178;-72
2023/01/14 15:18:58;;;;;;;0.77;0.73;;;11.00;99.90;;;;;;4939157;29;20206;-71
2023/01/14 15:21:27;;;;;;;1.20;0.50;;;11.00;99.90;;;;;;4950283;29;20180;-70
2023/01/14 15:23:57;;;;;;;0.50;0.50;;;11.00;99.90;;;;;;4940446;29;20197;-71
2023/01/14 15:26:28;;;;;;;0.63;0.60;;;11.00;99.90;;;;;;4941084;29;20192;-70
2023/01/14 15:28:55;;;;;;;0.65;0.60;;;11.10;99.90;;;;;;4958079;29;20653;-69
2023/01/14 15:31:34;;;;;;;0.52;0.52;;;11.10;99.90;;;;;;4958162;29;20188;-69
2023/01/14 15:34:18;;;;;;;0.60;0.50;;;11.10;99.90;;;;;;4957595;29;20200;-69
2023/01/14 15:36:54;;;;;;;0.65;0.65;;;11.10;99.90;;;;;;4940262;29;20269;-71
2023/01/14 15:39:20;;;;;;;0.50;0.50;;;11.10;99.40;;;;;;4942157;29;20244;-68
2023/01/14 15:41:56;;;;;;;0.43;0.43;;;11.20;98.90;;;;;;4959144;29;20166;-65
2023/01/14 15:44:26;;;;;;;0.40;0.40;;;11.20;98.80;;;;;;4959409;29;20441;-66
2023/01/14 15:46:52;;;;;;;0.52;0.50;;;11.30;99.00;;;;;;4958967;29;20177;-67
2023/01/14 15:49:19;;;;;;;2.55;0.40;;;11.30;99.00;;;;;;4957915;29;20186;-67
2023/01/14 15:51:48;;;;;;;0.40;0.40;;;11.30;99.00;;;;;;4940539;29;20186;-66
2023/01/14 15:54:36;;;;;;;0.70;0.70;;;11.30;99.20;;;;;;4957537;29;20666;-67
2023/01/14 15:57:16;;;;;;;0.68;0.45;;;11.30;99.80;;;;;;4965616;28;20178;-69
2023/01/14 16:00:49;;;;;;;0.80;0.60;;;11.20;99.70;;;;;;4975731;28;20198;-67
2023/01/14 16:03:45;;;;;;;0.68;0.63;;;11.20;99.70;;;;;;4892928;29;20232;-67
2023/01/14 16:06:39;;;;;;;0.40;0.40;;;11.10;99.60;;;;;;4886367;29;20176;-70
2023/01/14 16:09:22;;;;;;;0.40;0.40;;;11.10;99.70;;;;;;4892657;29;20203;-68
2023/01/14 16:12:26;;;;;;;0.35;0.35;;;11.00;99.90;;;;;;4894712;29;20189;-70
2023/01/14 16:16:08;;;;;;;0.50;0.50;;;11.00;99.70;;;;;;4875912;29;20216;-68
2023/01/14 16:29:00;;;;;;;1.75;0.93;;;10.90;99.90;;;;;;5860642;23;20223;-72
2023/01/14 16:31:44;;;;;;;0.60;0.60;;;10.90;99.90;;;;;;4985282;28;20184;-72
2023/01/14 16:36:42;;;;;;;0.90;0.70;;;10.80;99.90;;;;;;4995267;28;20214;-73
2023/01/14 16:39:14;;;;;;;0.30;0.30;;;10.80;99.70;;;;;;4997114;28;20198;-70
2023/01/14 16:41:47;;;;;;;0.40;0.40;;;10.80;99.70;;;;;;4981001;28;20496;-70
2023/01/14 16:44:14;;;;;;;0.50;0.50;;;10.80;99.30;;;;;;4980243;28;20192;-69
2023/01/14 16:46:40;;;;;;;0.40;0.40;;;10.90;99.40;;;;;;4975504;28;20195;-69
2023/01/14 16:49:07;;;;;;;0.87;0.87;;;10.90;99.20;;;;;;4975563;28;20177;-70
2023/01/14 16:51:34;;;;;;;0.50;0.50;;;10.90;99.40;;;;;;4975797;28;20248;-67
2023/01/14 16:54:00;;;;;;;0.70;0.50;;;10.90;99.70;;;;;;4957627;28;20671;-70
2023/01/14 16:56:26;;;;;;;0.77;0.73;;;10.90;99.30;;;;;;4975436;28;20169;-74
2023/01/14 16:58:55;;;;;;;0.50;0.50;;;10.90;99.60;;;;;;4974791;28;20299;-69
2023/01/14 17:01:22;;;;;;;0.73;0.73;;;10.90;99.80;;;;;;4958186;28;20179;-69
2023/01/14 17:03:48;;;;;;;0.55;0.55;;;10.90;99.70;;;;;;4957769;28;20196;-72
2023/01/14 17:06:17;;;;;;;0.63;0.63;;;10.90;99.70;;;;;;4975661;28;20169;-73
2023/01/14 17:08:42;;;;;;;0.70;0.70;;;10.90;99.60;;;;;;4975777;28;20259;-71
2023/01/14 17:13:52;;;;;;;0.80;0.80;;;10.90;99.70;;;;;;4975488;28;20741;-69
2023/01/14 17:16:18;;;;;;;0.77;0.53;;;10.90;99.90;;;;;;4957596;28;20219;-71
2023/01/14 17:18:43;;;;;;;1.47;0.60;;;10.90;99.90;;;;;;4975285;28;20331;-69
2023/01/14 17:21:11;;;;;;;0.57;0.57;;;10.90;99.90;;;;;;4975292;28;20183;-73
2023/01/14 17:23:36;;;;;;;0.43;0.43;;;10.90;99.90;;;;;;4975041;28;20259;-71
2023/01/14 17:26:07;;;;;;;0.80;0.80;;;10.90;99.90;;;;;;4975081;28;20312;-74
2023/01/14 17:28:33;;;;;;;0.77;0.50;;;10.80;99.90;;;;;;4958246;28;20339;-74
2023/01/14 17:30:58;;;;;;;0.70;0.70;;;10.80;99.90;;;;;;4974517;28;20182;-73
2023/01/14 17:33:24;;;;;;;1.57;1.37;;;10.80;99.90;;;;;;4957888;28;20188;-73
2023/01/14 17:35:50;;;;;;;0.50;0.50;;;10.80;99.90;;;;;;4975255;28;20237;-70
2023/01/14 17:38:15;;;;;;;0.40;0.40;;;10.80;99.90;;;;;;4975113;28;20255;-72
2023/01/14 17:40:41;;;;;;;0.57;0.57;;;10.80;99.90;;;;;;4957621;28;20508;-68
2023/01/14 17:43:07;;;;;;;0.40;0.40;;;10.80;99.90;;;;;;4974469;28;20219;-70
2023/01/14 17:45:35;;;;;;;0.67;0.67;;;10.80;99.90;;;;;;4974943;28;20184;-71
2023/01/14 17:48:00;;;;;;;0.60;0.60;;;10.80;99.90;;;;;;4974710;28;20906;-70
2023/01/14 17:50:26;;;;;;;0.80;0.73;;;10.80;99.90;;;;;;4975101;28;20183;-71
2023/01/14 17:52:52;;;;;;;1.73;0.77;;;10.80;99.90;;;;;;4974244;28;20222;-70
2023/01/14 17:55:19;;;;;;;0.97;0.73;;;10.80;99.90;;;;;;4974841;28;20307;-68
2023/01/14 17:57:45;;;;;;;0.57;0.57;;;10.80;99.90;;;;;;4974906;28;20172;-68
2023/01/14 18:00:12;;;;;;;1.10;1.10;;;10.70;99.90;;;;;;4970641;28;20208;-69
2023/01/14 18:02:38;;;;;;;0.60;0.60;;;10.80;99.90;;;;;;4955264;29;20405;-68
2023/01/14 18:05:04;;;;;;;0.80;0.80;;;10.80;99.90;;;;;;4954956;29;20189;-69
2023/01/14 18:07:30;;;;;;;0.67;0.67;;;10.80;99.90;;;;;;4956184;29;20538;-69
2023/01/14 18:09:56;;;;;;;0.65;0.65;;;10.70;99.90;;;;;;4968283;28;20188;-67
2023/01/14 18:12:21;;;;;;;1.80;0.80;;;10.70;99.90;;;;;;4976515;28;20641;-68
2023/01/14 18:14:47;;;;;;;0.93;0.93;;;10.70;99.90;;;;;;4975428;28;20306;-66
2023/01/14 18:17:13;;;;;;;1.13;0.70;;;10.70;99.90;;;;;;4975930;28;20177;-67
2023/01/14 18:19:39;;;;;;;0.60;0.60;;;10.80;99.90;;;;;;4958866;28;20200;-67
2023/01/14 18:22:05;;;;;;;0.60;0.60;;;10.80;99.90;;;;;;4975794;28;20223;-64
2023/01/14 18:24:31;;;;;;;0.83;0.83;;;10.80;99.90;;;;;;4959985;28;20441;-67
2023/01/14 18:26:56;;;;;;;0.40;0.40;;;10.80;99.90;;;;;;4960364;28;20182;-66
2023/01/14 18:29:22;;;;;;;0.97;0.90;;;10.80;99.90;;;;;;4975239;28;20415;-67
2023/01/14 18:31:48;;;;;;;0.87;0.87;;;10.80;99.90;;;;;;4973845;28;20173;-66
2023/01/14 18:34:14;;;;;;;0.85;0.85;;;10.70;99.90;;;;;;4973351;28;20274;-65
2023/01/14 18:36:43;;;;;;;1.00;0.85;;;10.70;99.90;;;;;;4977212;28;20201;-66
2023/01/14 18:39:13;;;;;;;0.80;0.80;;;10.70;99.90;;;;;;4982331;28;20702;-66
2023/01/14 18:41:39;;;;;;;0.93;0.93;;;10.70;99.90;;;;;;4960805;28;20168;-70
2023/01/14 18:44:05;;;;;;;0.70;0.70;;;10.70;99.90;;;;;;4970511;28;20196;-67
2023/01/14 18:46:30;;;;;;;1.20;0.80;;;10.70;99.90;;;;;;4980588;28;20720;-66
2023/01/14 18:48:56;;;;;;;0.73;0.60;;;10.70;99.90;;;;;;4974196;28;20210;-65
2023/01/14 18:51:25;;;;;;;0.93;0.93;;;10.70;99.90;;;;;;4972105;28;20517;-65
2023/01/14 19:01:35;;;;;;;0.70;0.70;;;10.70;99.90;;;;;;4992232;28;20218;-66
2023/01/14 19:04:02;;;;;;;0.75;0.75;;;10.70;99.90;;;;;;4990865;28;20563;-66
2023/01/14 19:06:28;;;;;;;0.60;0.50;;;10.70;99.90;;;;;;4967350;28;20199;-65
2023/01/14 19:08:55;;;;;;;0.90;0.90;;;10.70;99.90;;;;;;4957635;28;20569;-66
2023/01/14 19:14:10;;;;;;;0.95;0.93;;;10.80;99.90;;;;;;4978705;28;20224;-67
2023/01/14 19:16:38;;;;;;;1.17;1.00;;;10.80;99.90;;;;;;4984529;28;20179;-67